sensor_id;sensor_type;location;lat;lon;timestamp;pressure;altitude;pressure_sealevel;temperature;humidity
20860;BME280;10590;48.154;11.514;2024-03-29T00:01:12;94422.09;;;4.23;74.02
20860;BME280;10590;48.154;11.514;2024-03-29T00:06:33;94356.06;;;3.74;74.30
20860;BME280;10590;48.154;11.514;2024-03-29T00:11:53;94381.38;;;4.15;74.68
20860;BME280;10590;48.154;11.514;2024-03-29T00:17:15;94389.41;;;4.01;75.54
20860;BME280;10590;48.154;11.514;2024-03-29T00:22:36;94373.19;;;3.86;75.43
20860;BME280;10590;48.154;11.514;2024-03-29T00:27:57;94373.41;;;3.98;75.71
20860;BME280;10590;48.154;11.514;2024-03-29T00:33:19;94370.34;;;4.13;74.47
20860;BME280;10590;48.154;11.514;2024-03-29T00:38:40;94336.97;;;3.77;76.17
20860;BME280;10590;48.154;11.514;2024-03-29T00:44:00;94361.34;;;3.74;75.80
20860;BME280;10590;48.154;11.514;2024-03-29T00:49:22;94366.59;;;4.05;75.84
20860;BME280;10590;48.154;11.514;2024-03-29T00:54:43;94361.28;;;3.97;75.58
20860;BME280;10590;48.154;11.514;2024-03-29T01:00:05;94309.75;;;3.60;76.68
20860;BME280;10590;48.154;11.514;2024-03-29T01:05:27;94351.22;;;3.68;76.62
20860;BME280;10590;48.154;11.514;2024-03-29T01:10:48;94331.22;;;3.75;76.54
20860;BME280;10590;48.154;11.514;2024-03-29T01:16:09;94312.44;;;3.46;77.53
20860;BME280;10590;48.154;11.514;2024-03-29T01:21:31;94302.53;;;3.74;76.97
20860;BME280;10590;48.154;11.514;2024-03-29T01:26:52;94284.03;;;3.65;76.64
20860;BME280;10590;48.154;11.514;2024-03-29T01:32:12;94226.72;;;3.26;77.27
20860;BME280;10590;48.154;11.514;2024-03-29T01:37:35;94246.88;;;3.53;77.57
20860;BME280;10590;48.154;11.514;2024-03-29T01:42:55;94249.38;;;3.58;77.60
20860;BME280;10590;48.154;11.514;2024-03-29T01:48:17;94259.06;;;3.71;77.64
20860;BME280;10590;48.154;11.514;2024-03-29T01:53:41;94250.47;;;3.57;77.52
20860;BME280;10590;48.154;11.514;2024-03-29T01:59:03;94253.13;;;3.57;78.08
20860;BME280;10590;48.154;11.514;2024-03-29T02:04:26;94238.53;;;3.60;78.46
20860;BME280;10590;48.154;11.514;2024-03-29T02:09:49;94229.75;;;3.42;78.72
20860;BME280;10590;48.154;11.514;2024-03-29T02:15:14;94234.13;;;3.46;78.73
20860;BME280;10590;48.154;11.514;2024-03-29T02:20:36;94245.81;;;3.54;78.62
20860;BME280;10590;48.154;11.514;2024-03-29T02:26:00;94220.53;;;3.53;78.59
20860;BME280;10590;48.154;11.514;2024-03-29T02:31:22;94234.50;;;3.62;77.75
20860;BME280;10590;48.154;11.514;2024-03-29T02:36:43;94241.84;;;3.74;76.81
20860;BME280;10590;48.154;11.514;2024-03-29T02:42:07;94228.91;;;3.55;77.26
20860;BME280;10590;48.154;11.514;2024-03-29T02:47:29;94227.50;;;3.58;77.67
20860;BME280;10590;48.154;11.514;2024-03-29T02:52:50;94220.75;;;3.74;76.66
20860;BME280;10590;48.154;11.514;2024-03-29T02:58:13;94231.47;;;3.77;76.44
20860;BME280;10590;48.154;11.514;2024-03-29T03:03:35;94230.03;;;3.71;76.39
20860;BME280;10590;48.154;11.514;2024-03-29T03:08:57;94233.69;;;3.53;77.18
20860;BME280;10590;48.154;11.514;2024-03-29T03:14:37;94221.00;;;3.55;77.58
20860;BME280;10590;48.154;11.514;2024-03-29T03:19:59;94209.25;;;3.39;77.93
20860;BME280;10590;48.154;11.514;2024-03-29T03:25:21;94200.53;;;3.61;76.55
20860;BME280;10590;48.154;11.514;2024-03-29T03:30:44;94184.53;;;3.57;77.08
20860;BME280;10590;48.154;11.514;2024-03-29T03:36:06;94190.25;;;3.50;77.12
20860;BME280;10590;48.154;11.514;2024-03-29T03:41:28;94186.53;;;3.51;77.52
20860;BME280;10590;48.154;11.514;2024-03-29T03:46:51;94173.19;;;3.48;77.04
20860;BME280;10590;48.154;11.514;2024-03-29T03:52:13;94180.19;;;3.53;76.79
20860;BME280;10590;48.154;11.514;2024-03-29T03:57:34;94169.94;;;3.51;76.63
20860;BME280;10590;48.154;11.514;2024-03-29T04:02:57;94174.59;;;3.54;76.64
20860;BME280;10590;48.154;11.514;2024-03-29T04:08:19;94186.41;;;3.57;76.91
20860;BME280;10590;48.154;11.514;2024-03-29T04:13:42;94186.25;;;3.53;77.04
20860;BME280;10590;48.154;11.514;2024-03-29T04:19:05;94159.41;;;3.51;76.40
20860;BME280;10590;48.154;11.514;2024-03-29T04:24:27;94166.09;;;3.57;76.50
20860;BME280;10590;48.154;11.514;2024-03-29T04:29:51;94163.16;;;3.67;76.70
20860;BME280;10590;48.154;11.514;2024-03-29T04:35:14;94124.97;;;3.56;76.74
20860;BME280;10590;48.154;11.514;2024-03-29T04:40:35;94130.84;;;3.53;77.68
20860;BME280;10590;48.154;11.514;2024-03-29T04:46:02;94130.84;;;3.53;77.27
20860;BME280;10590;48.154;11.514;2024-03-29T04:51:26;94164.88;;;3.72;76.86
20860;BME280;10590;48.154;11.514;2024-03-29T04:56:47;94166.22;;;3.52;77.67
20860;BME280;10590;48.154;11.514;2024-03-29T05:02:09;94159.69;;;3.49;77.57
20860;BME280;10590;48.154;11.514;2024-03-29T05:07:32;94179.47;;;3.69;77.14
20860;BME280;10590;48.154;11.514;2024-03-29T05:12:54;94181.81;;;3.79;76.69
20860;BME280;10590;48.154;11.514;2024-03-29T05:18:15;94152.81;;;3.88;75.65
20860;BME280;10590;48.154;11.514;2024-03-29T05:23:38;94164.91;;;3.98;74.90
20860;BME280;10590;48.154;11.514;2024-03-29T05:29:00;94147.06;;;3.95;75.53
20860;BME280;10590;48.154;11.514;2024-03-29T05:34:23;94113.53;;;4.21;74.48
20860;BME280;10590;48.154;11.514;2024-03-29T05:39:46;94096.94;;;4.38;73.34
20860;BME280;10590;48.154;11.514;2024-03-29T05:45:22;94104.66;;;4.60;72.04
20860;BME280;10590;48.154;11.514;2024-03-29T05:50:44;94101.47;;;4.84;71.08
20860;BME280;10590;48.154;11.514;2024-03-29T05:56:07;94099.84;;;5.09;69.63
20860;BME280;10590;48.154;11.514;2024-03-29T06:01:29;94116.44;;;5.27;68.97
20860;BME280;10590;48.154;11.514;2024-03-29T06:06:51;94115.44;;;5.40;68.10
20860;BME280;10590;48.154;11.514;2024-03-29T06:12:14;94143.72;;;5.48;68.83
20860;BME280;10590;48.154;11.514;2024-03-29T06:17:35;94135.81;;;8.40;59.91
20860;BME280;10590;48.154;11.514;2024-03-29T06:22:57;94136.66;;;9.28;55.30
20860;BME280;10590;48.154;11.514;2024-03-29T06:28:20;94146.38;;;9.83;53.65
20860;BME280;10590;48.154;11.514;2024-03-29T06:33:42;94161.09;;;9.18;54.03
20860;BME280;10590;48.154;11.514;2024-03-29T06:39:03;94149.66;;;9.02;55.24
20860;BME280;10590;48.154;11.514;2024-03-29T06:44:26;94123.16;;;10.19;51.57
20860;BME280;10590;48.154;11.514;2024-03-29T06:49:48;94140.59;;;9.34;54.17
20860;BME280;10590;48.154;11.514;2024-03-29T06:55:10;94136.94;;;12.99;45.96
20860;BME280;10590;48.154;11.514;2024-03-29T07:00:34;94113.28;;;13.04;45.06
20860;BME280;10590;48.154;11.514;2024-03-29T07:05:55;94130.59;;;14.57;41.44
20860;BME280;10590;48.154;11.514;2024-03-29T07:11:18;94111.13;;;14.06;42.02
20860;BME280;10590;48.154;11.514;2024-03-29T07:16:41;94116.97;;;15.02;39.61
20860;BME280;10590;48.154;11.514;2024-03-29T07:22:03;94110.63;;;14.51;41.52
20860;BME280;10590;48.154;11.514;2024-03-29T07:27:25;94118.13;;;13.25;42.74
20860;BME280;10590;48.154;11.514;2024-03-29T07:32:49;94111.00;;;12.73;44.98
20860;BME280;10590;48.154;11.514;2024-03-29T07:38:11;94103.63;;;16.33;36.48
20860;BME280;10590;48.154;11.514;2024-03-29T07:43:38;94133.28;;;15.90;38.82
20860;BME280;10590;48.154;11.514;2024-03-29T07:49:01;94147.16;;;18.44;33.60
20860;BME280;10590;48.154;11.514;2024-03-29T07:54:23;94146.22;;;16.81;37.14
20860;BME280;10590;48.154;11.514;2024-03-29T07:59:45;94149.31;;;17.63;36.08
20860;BME280;10590;48.154;11.514;2024-03-29T08:05:11;94147.84;;;19.23;32.77
20860;BME280;10590;48.154;11.514;2024-03-29T08:10:32;94146.97;;;18.99;33.56
20860;BME280;10590;48.154;11.514;2024-03-29T08:15:57;94153.16;;;18.96;33.87
20860;BME280;10590;48.154;11.514;2024-03-29T08:21:21;94133.97;;;18.87;34.19
20860;BME280;10590;48.154;11.514;2024-03-29T08:26:43;94133.00;;;18.70;34.79
20860;BME280;10590;48.154;11.514;2024-03-29T08:32:05;94138.09;;;17.72;36.71
20860;BME280;10590;48.154;11.514;2024-03-29T08:37:31;94124.94;;;18.67;35.39
20860;BME280;10590;48.154;11.514;2024-03-29T08:42:52;94127.06;;;20.24;32.59
20860;BME280;10590;48.154;11.514;2024-03-29T08:48:14;94112.91;;;19.90;33.00
20860;BME280;10590;48.154;11.514;2024-03-29T08:53:37;94116.03;;;17.84;36.45
20860;BME280;10590;48.154;11.514;2024-03-29T08:58:58;94116.63;;;18.47;37.82
20860;BME280;10590;48.154;11.514;2024-03-29T09:04:23;94116.47;;;18.65;35.34
20860;BME280;10590;48.154;11.514;2024-03-29T09:09:47;94111.13;;;19.80;32.75
20860;BME280;10590;48.154;11.514;2024-03-29T09:15:09;94118.09;;;18.14;33.46
20860;BME280;10590;48.154;11.514;2024-03-29T09:20:33;94115.59;;;19.66;31.90
20860;BME280;10590;48.154;11.514;2024-03-29T09:25:56;94110.00;;;19.50;31.20
20860;BME280;10590;48.154;11.514;2024-03-29T09:31:18;94111.53;;;19.51;30.72
20860;BME280;10590;48.154;11.514;2024-03-29T09:36:39;94111.69;;;19.67;29.85
20860;BME280;10590;48.154;11.514;2024-03-29T09:42:03;94100.53;;;19.89;30.84
20860;BME280;10590;48.154;11.514;2024-03-29T09:47:27;94114.47;;;20.14;29.39
20860;BME280;10590;48.154;11.514;2024-03-29T09:52:49;94122.44;;;18.45;31.91
20860;BME280;10590;48.154;11.514;2024-03-29T09:58:13;94109.00;;;18.76;32.40
20860;BME280;10590;48.154;11.514;2024-03-29T10:03:36;94110.22;;;17.86;32.56
20860;BME280;10590;48.154;11.514;2024-03-29T10:09:00;94115.38;;;18.14;32.77
20860;BME280;10590;48.154;11.514;2024-03-29T10:14:23;94123.81;;;18.23;32.78
20860;BME280;10590;48.154;11.514;2024-03-29T10:19:45;94126.69;;;18.43;32.69
20860;BME280;10590;48.154;11.514;2024-03-29T10:25:07;94097.91;;;18.67;31.76
20860;BME280;10590;48.154;11.514;2024-03-29T10:30:30;94108.91;;;19.44;31.41
20860;BME280;10590;48.154;11.514;2024-03-29T10:35:52;94106.19;;;19.75;30.36
20860;BME280;10590;48.154;11.514;2024-03-29T10:41:16;94098.13;;;19.14;31.85
20860;BME280;10590;48.154;11.514;2024-03-29T10:46:40;94098.59;;;19.08;30.94
20860;BME280;10590;48.154;11.514;2024-03-29T10:52:03;94083.56;;;19.61;30.32
20860;BME280;10590;48.154;11.514;2024-03-29T10:57:26;94070.25;;;21.40;28.57
20860;BME280;10590;48.154;11.514;2024-03-29T11:02:53;94072.19;;;19.97;30.04
20860;BME280;10590;48.154;11.514;2024-03-29T11:08:21;94061.56;;;20.29;30.22
20860;BME280;10590;48.154;11.514;2024-03-29T11:13:47;94058.31;;;20.38;29.69
20860;BME280;10590;48.154;11.514;2024-03-29T11:19:12;94052.41;;;19.77;30.97
20860;BME280;10590;48.154;11.514;2024-03-29T11:24:38;94067.00;;;19.83;31.19
20860;BME280;10590;48.154;11.514;2024-03-29T11:30:02;94054.16;;;19.63;30.32
20860;BME280;10590;48.154;11.514;2024-03-29T11:35:26;94060.53;;;19.77;31.08
20860;BME280;10590;48.154;11.514;2024-03-29T11:40:54;94048.13;;;20.02;31.23
20860;BME280;10590;48.154;11.514;2024-03-29T11:46:15;94055.88;;;20.00;30.41
20860;BME280;10590;48.154;11.514;2024-03-29T11:51:40;94048.19;;;20.42;30.47
20860;BME280;10590;48.154;11.514;2024-03-29T11:57:04;94039.22;;;20.65;30.13
20860;BME280;10590;48.154;11.514;2024-03-29T12:02:25;94058.56;;;20.67;30.54
20860;BME280;10590;48.154;11.514;2024-03-29T12:07:48;94050.03;;;20.25;29.98
20860;BME280;10590;48.154;11.514;2024-03-29T12:13:10;94040.31;;;21.92;29.15
20860;BME280;10590;48.154;11.514;2024-03-29T12:18:32;94040.47;;;22.17;28.19
20860;BME280;10590;48.154;11.514;2024-03-29T12:23:55;94018.81;;;23.13;27.29
20860;BME280;10590;48.154;11.514;2024-03-29T12:29:17;94009.34;;;23.05;27.45
20860;BME280;10590;48.154;11.514;2024-03-29T12:34:38;94000.31;;;23.21;25.85
20860;BME280;10590;48.154;11.514;2024-03-29T12:40:02;93993.16;;;25.00;24.51
20860;BME280;10590;48.154;11.514;2024-03-29T12:45:32;93991.88;;;24.92;25.06
20860;BME280;10590;48.154;11.514;2024-03-29T12:50:53;93981.22;;;25.37;24.56
20860;BME280;10590;48.154;11.514;2024-03-29T12:56:16;93956.84;;;24.03;24.79
20860;BME280;10590;48.154;11.514;2024-03-29T13:01:38;93949.34;;;24.72;24.61
20860;BME280;10590;48.154;11.514;2024-03-29T13:07:00;93948.03;;;24.55;23.99
20860;BME280;10590;48.154;11.514;2024-03-29T13:12:24;93941.56;;;25.73;22.86
20860;BME280;10590;48.154;11.514;2024-03-29T13:17:46;93942.97;;;24.97;23.31
20860;BME280;10590;48.154;11.514;2024-03-29T13:23:09;93943.72;;;24.98;23.82
20860;BME280;10590;48.154;11.514;2024-03-29T13:28:33;93928.88;;;23.68;25.09
20860;BME280;10590;48.154;11.514;2024-03-29T13:33:55;93934.13;;;23.24;25.23
20860;BME280;10590;48.154;11.514;2024-03-29T13:39:23;93921.72;;;23.10;25.51
20860;BME280;10590;48.154;11.514;2024-03-29T13:44:49;93925.53;;;23.00;25.64
20860;BME280;10590;48.154;11.514;2024-03-29T13:50:11;93932.38;;;22.79;25.30
20860;BME280;10590;48.154;11.514;2024-03-29T13:55:35;93925.19;;;22.73;26.04
20860;BME280;10590;48.154;11.514;2024-03-29T14:00:58;93928.78;;;23.33;25.88
20860;BME280;10590;48.154;11.514;2024-03-29T14:06:20;93938.78;;;22.02;26.18
20860;BME280;10590;48.154;11.514;2024-03-29T14:11:43;93933.38;;;22.31;25.49
20860;BME280;10590;48.154;11.514;2024-03-29T14:17:06;93931.97;;;22.94;26.55
20860;BME280;10590;48.154;11.514;2024-03-29T14:22:29;93928.53;;;21.93;26.73
20860;BME280;10590;48.154;11.514;2024-03-29T14:27:53;93936.56;;;22.13;26.84
20860;BME280;10590;48.154;11.514;2024-03-29T14:33:19;93932.84;;;21.78;27.84
20860;BME280;10590;48.154;11.514;2024-03-29T14:38:41;93936.31;;;21.79;27.27
20860;BME280;10590;48.154;11.514;2024-03-29T14:44:03;93932.25;;;22.00;27.03
20860;BME280;10590;48.154;11.514;2024-03-29T14:49:26;93911.53;;;21.60;26.77
20860;BME280;10590;48.154;11.514;2024-03-29T14:54:47;93923.59;;;21.76;26.54
20860;BME280;10590;48.154;11.514;2024-03-29T15:00:10;93912.53;;;21.83;25.75
20860;BME280;10590;48.154;11.514;2024-03-29T15:05:34;93927.56;;;22.16;26.35
20860;BME280;10590;48.154;11.514;2024-03-29T15:10:56;93914.00;;;22.00;26.33
20860;BME280;10590;48.154;11.514;2024-03-29T15:16:19;93933.31;;;21.89;25.33
20860;BME280;10590;48.154;11.514;2024-03-29T15:21:42;93920.03;;;21.62;26.50
20860;BME280;10590;48.154;11.514;2024-03-29T15:27:04;93961.94;;;21.29;26.54
20860;BME280;10590;48.154;11.514;2024-03-29T15:32:35;93957.75;;;21.08;27.19
20860;BME280;10590;48.154;11.514;2024-03-29T15:37:58;93948.78;;;20.75;27.33
20860;BME280;10590;48.154;11.514;2024-03-29T15:43:21;93969.94;;;20.64;27.59
20860;BME280;10590;48.154;11.514;2024-03-29T15:48:43;93945.69;;;20.37;27.41
20860;BME280;10590;48.154;11.514;2024-03-29T15:54:06;93969.13;;;20.27;27.63
20860;BME280;10590;48.154;11.514;2024-03-29T15:59:31;93966.69;;;20.13;27.98
20860;BME280;10590;48.154;11.514;2024-03-29T16:04:53;93982.94;;;19.90;28.41
20860;BME280;10590;48.154;11.514;2024-03-29T16:10:17;93976.09;;;19.62;29.50
20860;BME280;10590;48.154;11.514;2024-03-29T16:15:39;93942.44;;;19.39;29.69
20860;BME280;10590;48.154;11.514;2024-03-29T16:21:01;93952.47;;;19.16;29.74
20860;BME280;10590;48.154;11.514;2024-03-29T16:26:25;93967.59;;;19.13;29.77
20860;BME280;10590;48.154;11.514;2024-03-29T16:31:50;93973.41;;;19.12;29.97
20860;BME280;10590;48.154;11.514;2024-03-29T16:37:12;93976.41;;;18.90;30.63
20860;BME280;10590;48.154;11.514;2024-03-29T16:42:36;93963.34;;;18.85;29.87
20860;BME280;10590;48.154;11.514;2024-03-29T16:47:58;93967.06;;;18.68;30.51
20860;BME280;10590;48.154;11.514;2024-03-29T16:53:20;93978.94;;;18.74;30.93
20860;BME280;10590;48.154;11.514;2024-03-29T16:58:43;93986.13;;;18.54;31.80
20860;BME280;10590;48.154;11.514;2024-03-29T17:04:05;93984.81;;;18.35;31.54
20860;BME280;10590;48.154;11.514;2024-03-29T17:09:34;93993.44;;;18.23;31.31
20860;BME280;10590;48.154;11.514;2024-03-29T17:14:58;93986.53;;;18.18;31.58
20860;BME280;10590;48.154;11.514;2024-03-29T17:20:21;93986.66;;;18.07;31.79
20860;BME280;10590;48.154;11.514;2024-03-29T17:25:42;93980.72;;;17.86;32.10
20860;BME280;10590;48.154;11.514;2024-03-29T17:31:05;93994.34;;;17.71;32.65
20860;BME280;10590;48.154;11.514;2024-03-29T17:36:27;93990.91;;;17.67;32.10
20860;BME280;10590;48.154;11.514;2024-03-29T17:41:49;94001.41;;;17.55;33.23
20860;BME280;10590;48.154;11.514;2024-03-29T17:47:12;94006.78;;;17.55;33.09
20860;BME280;10590;48.154;11.514;2024-03-29T17:52:34;94003.13;;;17.34;33.46
20860;BME280;10590;48.154;11.514;2024-03-29T17:57:57;93994.41;;;17.12;32.71
20860;BME280;10590;48.154;11.514;2024-03-29T18:03:20;94018.91;;;17.36;32.33
20860;BME280;10590;48.154;11.514;2024-03-29T18:08:42;94030.84;;;17.31;32.37
20860;BME280;10590;48.154;11.514;2024-03-29T18:14:06;93981.38;;;17.04;32.65
20860;BME280;10590;48.154;11.514;2024-03-29T18:19:33;94033.59;;;17.24;32.01
20860;BME280;10590;48.154;11.514;2024-03-29T18:24:55;94043.16;;;17.36;31.94
20860;BME280;10590;48.154;11.514;2024-03-29T18:30:17;94042.06;;;17.23;32.23
20860;BME280;10590;48.154;11.514;2024-03-29T18:35:42;94022.50;;;17.11;32.13
20860;BME280;10590;48.154;11.514;2024-03-29T18:41:04;94045.97;;;17.14;32.40
20860;BME280;10590;48.154;11.514;2024-03-29T18:46:26;94017.63;;;16.92;32.32
20860;BME280;10590;48.154;11.514;2024-03-29T18:51:49;94063.03;;;16.97;32.82
20860;BME280;10590;48.154;11.514;2024-03-29T18:57:12;94059.81;;;17.16;31.85
20860;BME280;10590;48.154;11.514;2024-03-29T19:02:34;94042.56;;;17.07;31.54
20860;BME280;10590;48.154;11.514;2024-03-29T19:07:57;94054.91;;;17.04;32.12
20860;BME280;10590;48.154;11.514;2024-03-29T19:13:19;94070.56;;;17.24;31.27
20860;BME280;10590;48.154;11.514;2024-03-29T19:18:40;94070.19;;;17.22;31.08
20860;BME280;10590;48.154;11.514;2024-03-29T19:24:04;94080.72;;;16.98;32.00
20860;BME280;10590;48.154;11.514;2024-03-29T19:29:26;94075.44;;;16.73;32.41
20860;BME280;10590;48.154;11.514;2024-03-29T19:34:48;94080.88;;;16.55;32.83
20860;BME280;10590;48.154;11.514;2024-03-29T19:40:11;94101.28;;;16.56;33.26
20860;BME280;10590;48.154;11.514;2024-03-29T19:45:33;94082.78;;;16.62;32.43
20860;BME280;10590;48.154;11.514;2024-03-29T19:50:55;94076.69;;;16.47;32.57
20860;BME280;10590;48.154;11.514;2024-03-29T19:56:18;94093.97;;;16.43;33.09
20860;BME280;10590;48.154;11.514;2024-03-29T20:01:43;94061.38;;;16.12;33.35
20860;BME280;10590;48.154;11.514;2024-03-29T20:07:05;94103.59;;;16.54;32.63
20860;BME280;10590;48.154;11.514;2024-03-29T20:12:28;94111.25;;;16.60;32.12
20860;BME280;10590;48.154;11.514;2024-03-29T20:17:50;94115.50;;;16.53;32.59
20860;BME280;10590;48.154;11.514;2024-03-29T20:23:12;94119.34;;;16.45;33.11
20860;BME280;10590;48.154;11.514;2024-03-29T20:28:35;94121.66;;;16.58;32.45
20860;BME280;10590;48.154;11.514;2024-03-29T20:33:56;94112.44;;;16.44;31.90
20860;BME280;10590;48.154;11.514;2024-03-29T20:39:18;94117.81;;;16.59;32.02
20860;BME280;10590;48.154;11.514;2024-03-29T20:44:42;94119.34;;;16.56;32.13
20860;BME280;10590;48.154;11.514;2024-03-29T20:50:06;94088.97;;;16.41;32.16
20860;BME280;10590;48.154;11.514;2024-03-29T20:55:29;94127.81;;;16.58;32.75
20860;BME280;10590;48.154;11.514;2024-03-29T21:00:52;94101.66;;;16.51;31.64
20860;BME280;10590;48.154;11.514;2024-03-29T21:06:18;94085.13;;;16.53;31.81
20860;BME280;10590;48.154;11.514;2024-03-29T21:11:40;94105.13;;;16.45;32.04
20860;BME280;10590;48.154;11.514;2024-03-29T21:17:04;94146.28;;;16.60;32.14
20860;BME280;10590;48.154;11.514;2024-03-29T21:22:27;94130.53;;;16.47;32.00
20860;BME280;10590;48.154;11.514;2024-03-29T21:27:49;94113.59;;;16.36;32.05
20860;BME280;10590;48.154;11.514;2024-03-29T21:33:15;94107.84;;;16.27;31.94
20860;BME280;10590;48.154;11.514;2024-03-29T21:38:37;94140.16;;;16.34;32.57
20860;BME280;10590;48.154;11.514;2024-03-29T21:43:58;94140.19;;;16.13;32.85
20860;BME280;10590;48.154;11.514;2024-03-29T21:49:21;94135.56;;;16.20;32.63
20860;BME280;10590;48.154;11.514;2024-03-29T21:54:44;94158.25;;;16.19;32.90
20860;BME280;10590;48.154;11.514;2024-03-29T22:00:07;94168.25;;;16.15;33.60
20860;BME280;10590;48.154;11.514;2024-03-29T22:05:30;94128.66;;;15.98;32.41
20860;BME280;10590;48.154;11.514;2024-03-29T22:10:52;94164.38;;;16.27;32.44
20860;BME280;10590;48.154;11.514;2024-03-29T22:16:14;94145.94;;;16.15;31.62
20860;BME280;10590;48.154;11.514;2024-03-29T22:21:38;94130.56;;;16.12;32.09
20860;BME280;10590;48.154;11.514;2024-03-29T22:27:00;94157.09;;;16.13;32.35
20860;BME280;10590;48.154;11.514;2024-03-29T22:32:22;94174.78;;;16.25;32.28
20860;BME280;10590;48.154;11.514;2024-03-29T22:37:45;94163.25;;;16.17;32.29
20860;BME280;10590;48.154;11.514;2024-03-29T22:43:07;94167.84;;;16.24;32.25
20860;BME280;10590;48.154;11.514;2024-03-29T22:48:28;94167.09;;;16.23;32.33
20860;BME280;10590;48.154;11.514;2024-03-29T22:53:51;94155.94;;;16.11;32.16
20860;BME280;10590;48.154;11.514;2024-03-29T22:59:13;94160.94;;;16.12;32.47
20860;BME280;10590;48.154;11.514;2024-03-29T23:04:35;94161.72;;;15.99;33.08
20860;BME280;10590;48.154;11.514;2024-03-29T23:09:58;94164.03;;;16.00;32.44
20860;BME280;10590;48.154;11.514;2024-03-29T23:15:20;94175.16;;;15.67;33.18
20860;BME280;10590;48.154;11.514;2024-03-29T23:20:50;94181.56;;;15.34;33.67
20860;BME280;10590;48.154;11.514;2024-03-29T23:26:14;94178.44;;;15.21;34.28
20860;BME280;10590;48.154;11.514;2024-03-29T23:31:36;94183.81;;;15.17;35.10
20860;BME280;10590;48.154;11.514;2024-03-29T23:36:59;94176.13;;;15.12;34.91
20860;BME280;10590;48.154;11.514;2024-03-29T23:42:22;94181.03;;;14.96;35.68
20860;BME280;10590;48.154;11.514;2024-03-29T23:47:44;94197.56;;;14.98;36.00
20860;BME280;10590;48.154;11.514;2024-03-29T23:53:06;94195.19;;;14.82;36.23
20860;BME280;10590;48.154;11.514;2024-03-29T23:58:29;94190.56;;;14.79;36.44
